M V Trinidad — LAIY4 — position and weather

sailwx.info

Track history (hours):
 
Tides and Currents Weather Stations Pressure Air Temp Water Temp Dewpoint Dewpoint Depression Visibility Wind Speed Wind Dir Waves Ship Positions

M V Trinidad

Last reported at 2015-Aug-04 13:33 UTC. Time now 2015-Aug-04 23:55 UTC.
Position N 34°09' W 119°13'.

Length 189 m; draft 8.8 m.

Type: Cargo ship. MMSI: 257425411.

Date/timePositionNaut miles runAvg speedWind from/ knotsBaromVisibWave heightAir tempDewpointWater temp
2015-Aug-04 13:33N 34°09' W 119°13'4 4.4
2015-Aug-04 12:33N 34°05' W 119°15'1110.2
2015-Aug-04 11:31N 34°05' W 119°28'4614.1
2015-Aug-04 08:14N 34°18' W 120°22'913.4
2015-Aug-04 07:32N 34°20' W 120°33'1614.2
2015-Aug-04 06:23N 34°24' W 120°52'2614.1
2015-Aug-04 04:32N 34°45' W 121°12'1714.2
2015-Aug-04 03:20N 34°58' W 121°24'1113.7
2015-Aug-04 02:33N 35°07' W 121°31'1514.1
2015-Aug-04 01:31N 35°19' W 121°42'1414.2
2015-Aug-04 00:33N 35°30' W 121°52'1414.2
2015-Aug-03 23:33N 35°42' W 122°01'1414.3
2015-Aug-03 22:33N 35°55' W 122°08'1413.8
2015-Aug-03 21:33N 36°08' W 122°14'1413.9
2015-Aug-03 20:33N 36°21' W 122°21'1414.2
2015-Aug-03 19:33N 36°34' W 122°27'1414.4
2015-Aug-03 18:33N 36°48' W 122°33'1414.4
2015-Aug-03 17:33N 37°01' W 122°39'1413.9
2015-Aug-03 16:33N 37°15' W 122°44'1414.2
2015-Aug-03 15:34N 37°29' W 122°44'1413.8
2015-Aug-03 14:33N 37°43' W 122°42'1413.6
2015-Aug-03 13:33N 37°50' W 122°27'1212.3
2015-Aug-03 12:33N 38°02' W 122°22'9 9.4
2015-Aug-03 11:33N 38°03' W 122°10'2 0.2
2015-Aug-03 02:33N 38°02' W 122°08'0 0.0
2015-Aug-03 01:33N 38°02' W 122°08'0 0.0
2015-Aug-02 18:33N 38°02' W 122°08'0 0.0
2015-Aug-02 11:24N 38°02' W 122°08'5 5.9
2015-Aug-02 10:34N 38°04' W 122°14'1212.4
2015-Aug-02 09:33N 37°56' W 122°27'1110.5
2015-Aug-02 08:33N 37°47' W 122°33'1010.4
2015-Aug-02 07:33N 37°42' W 122°45'1111.4
2015-Aug-02 06:33N 37°35' W 122°57'1312.9
2015-Aug-02 05:33N 37°27' W 123°09'4 4.3
2015-Aug-02 04:33N 37°23' W 123°10'1 0.9
2015-Aug-02 03:33N 37°24' W 123°11'1 1.2
2015-Aug-02 02:33N 37°24' W 123°12'1 1.1
2015-Aug-02 01:33N 37°25' W 123°13'1 1.0
2015-Aug-02 00:31N 37°25' W 123°15'1 0.7
2015-Aug-01 23:33N 37°26' W 123°15'1 0.6
2015-Aug-01 22:33N 37°26' W 123°16'0 0.4
2015-Aug-01 21:33N 37°25' W 123°17'0 0.3
2015-Aug-01 20:33N 37°25' W 123°17'0 0.3
2015-Aug-01 19:33N 37°25' W 123°17'0 0.4
2015-Aug-01 18:33N 37°25' W 123°17'0 0.3
2015-Aug-01 17:33N 37°25' W 123°18'0 0.3
2015-Aug-01 16:33N 37°24' W 123°18'0 0.3
2015-Aug-01 15:33N 37°25' W 123°18'0 0.3
2015-Aug-01 14:34N 37°25' W 123°19'1 0.5
2015-Aug-01 13:33N 37°25' W 123°19'1 0.6
2015-Aug-01 12:33N 37°26' W 123°20'0 0.3
2015-Aug-01 11:33N 37°26' W 123°20'0 0.4
2015-Aug-01 10:34N 37°26' W 123°20'0 0.3
2015-Aug-01 09:33N 37°26' W 123°20'0 0.1
2015-Aug-01 08:33N 37°26' W 123°20'0 0.3
2015-Aug-01 07:33N 37°26' W 123°20'0 0.2
2015-Aug-01 06:33N 37°26' W 123°20'0 0.2
2015-Aug-01 05:33N 37°26' W 123°20'0 0.5
2015-Aug-01 04:33N 37°26' W 123°20'0 0.3
2015-Aug-01 03:34N 37°26' W 123°21'0 0.4
2015-Aug-01 02:33N 37°27' W 123°21'0 0.3
2015-Aug-01 01:33N 37°27' W 123°21'1 0.5
2015-Aug-01 00:33N 37°28' W 123°21'1 0.6
2015-Jul-31 23:33N 37°28' W 123°21'0 0.4
2015-Jul-31 22:33N 37°29' W 123°21'0 0.3
2015-Jul-31 21:33N 37°29' W 123°21'0 0.2
2015-Jul-31 20:33N 37°29' W 123°21'0 0.1
2015-Jul-31 19:33N 37°29' W 123°21'0 0.3
2015-Jul-31 18:34N 37°29' W 123°21'10 9.7
2015-Jul-31 17:33N 37°38' W 123°24'1313.5
2015-Jul-31 16:33N 37°51' W 123°29'1212.4
2015-Jul-31 15:33N 38°04' W 123°27'9 8.6
2015-Jul-31 14:33N 38°06' W 123°16'8 8.0
2015-Jul-31 13:34N 38°09' W 123°26'1313.4
2015-Jul-31 12:33N 38°10' W 123°43'1413.6
2015-Jul-31 11:33N 38°10' W 124°00'1413.9
2015-Jul-31 10:33N 38°10' W 124°18'1413.9
2015-Jul-31 09:33N 38°10' W 124°36'1312.6
2015-Jul-31 08:33N 38°07' W 124°51'3 2.8
2015-Jul-31 07:33N 38°10' W 124°53'1414.1
2015-Jul-31 06:34N 38°10' W 125°11'1414.1
2015-Jul-31 05:33N 38°10' W 125°29'1413.8
2015-Jul-31 04:33N 38°10' W 125°47'1414.0
2015-Jul-31 03:34N 38°10' W 126°05'1414.0
2015-Jul-31 02:33N 38°10' W 126°22'1413.7
2015-Jul-31 01:33N 38°10' W 126°40'1513.6
2015-Jul-31 00:27N 38°10' W 126°59'1213.5
2015-Jul-30 23:34N 38°10' W 127°14'5 4.9
2015-Jul-30 22:33N 38°10' W 127°20'1110.8
2015-Jul-30 21:33N 38°10' W 127°34'1413.4
2015-Jul-30 20:30N 38°10' W 127°52'1213.0
2015-Jul-30 19:33N 38°14' W 128°07'1413.6
2015-Jul-30 18:33N 38°21' W 128°21'1413.6
2015-Jul-30 17:33N 38°29' W 128°36'1413.5
2015-Jul-30 16:30N 38°37' W 128°51'3913.2
2015-Jul-30 13:33N 38°59' W 129°32'1312.7
2015-Jul-30 12:33N 39°06' W 129°46'1513.0
2015-Jul-30 11:24N 39°14' W 130°02'1113.3
2015-Jul-30 10:33N 39°20' W 130°14'1313.2
2015-Jul-30 09:33N 39°28' W 130°28'1312.9
2015-Jul-30 08:33N 39°34' W 130°42'1312.8
2015-Jul-30 07:33N 39°42' W 130°56'1312.6
2015-Jul-30 06:33N 39°48' W 131°10'1212.6
2015-Jul-30 05:33N 39°55' W 131°24'1312.7
2015-Jul-30 04:33N 40°02' W 131°38'1313.0
2015-Jul-30 03:33N 40°09' W 131°52'1313.1
2015-Jul-30 02:32N 40°16' W 132°07'5413.3
2015-Jul-29 22:29N 40°44' W 133°07'  
Track history (hours):
 
Tides and Currents Weather Stations Pressure Air Temp Water Temp Dewpoint Dewpoint Depression Visibility Wind Speed Wind Dir Waves Ship Positions

M V Trinidad

Last reported at 2015-Aug-04 13:33 UTC. Time now 2015-Aug-04 23:55 UTC.
Position N 34°09' W 119°13'.

Length 189 m; draft 8.8 m.

Type: Cargo ship. MMSI: 257425411.

Date/timePositionNaut miles runAvg speedWind from/ knotsBaromVisibWave heightAir tempDewpointWater temp
2015-Aug-04 13:33N 34°09' W 119°13'4 4.4
2015-Aug-04 12:33N 34°05' W 119°15'1110.2
2015-Aug-04 11:31N 34°05' W 119°28'4614.1
2015-Aug-04 08:14N 34°18' W 120°22'913.4
2015-Aug-04 07:32N 34°20' W 120°33'1614.2
2015-Aug-04 06:23N 34°24' W 120°52'2614.1
2015-Aug-04 04:32N 34°45' W 121°12'1714.2
2015-Aug-04 03:20N 34°58' W 121°24'1113.7
2015-Aug-04 02:33N 35°07' W 121°31'1514.1
2015-Aug-04 01:31N 35°19' W 121°42'1414.2
2015-Aug-04 00:33N 35°30' W 121°52'1414.2
2015-Aug-03 23:33N 35°42' W 122°01'1414.3
2015-Aug-03 22:33N 35°55' W 122°08'1413.8
2015-Aug-03 21:33N 36°08' W 122°14'1413.9
2015-Aug-03 20:33N 36°21' W 122°21'1414.2
2015-Aug-03 19:33N 36°34' W 122°27'1414.4
2015-Aug-03 18:33N 36°48' W 122°33'1414.4
2015-Aug-03 17:33N 37°01' W 122°39'1413.9
2015-Aug-03 16:33N 37°15' W 122°44'1414.2
2015-Aug-03 15:34N 37°29' W 122°44'1413.8
2015-Aug-03 14:33N 37°43' W 122°42'1413.6
2015-Aug-03 13:33N 37°50' W 122°27'1212.3
2015-Aug-03 12:33N 38°02' W 122°22'9 9.4
2015-Aug-03 11:33N 38°03' W 122°10'2 0.2
2015-Aug-03 02:33N 38°02' W 122°08'0 0.0
2015-Aug-03 01:33N 38°02' W 122°08'0 0.0
2015-Aug-02 18:33N 38°02' W 122°08'0 0.0
2015-Aug-02 11:24N 38°02' W 122°08'5 5.9
2015-Aug-02 10:34N 38°04' W 122°14'1212.4
2015-Aug-02 09:33N 37°56' W 122°27'1110.5
2015-Aug-02 08:33N 37°47' W 122°33'1010.4
2015-Aug-02 07:33N 37°42' W 122°45'1111.4
2015-Aug-02 06:33N 37°35' W 122°57'1312.9
2015-Aug-02 05:33N 37°27' W 123°09'4 4.3
2015-Aug-02 04:33N 37°23' W 123°10'1 0.9
2015-Aug-02 03:33N 37°24' W 123°11'1 1.2
2015-Aug-02 02:33N 37°24' W 123°12'1 1.1
2015-Aug-02 01:33N 37°25' W 123°13'1 1.0
2015-Aug-02 00:31N 37°25' W 123°15'1 0.7
2015-Aug-01 23:33N 37°26' W 123°15'1 0.6
2015-Aug-01 22:33N 37°26' W 123°16'0 0.4
2015-Aug-01 21:33N 37°25' W 123°17'0 0.3
2015-Aug-01 20:33N 37°25' W 123°17'0 0.3
2015-Aug-01 19:33N 37°25' W 123°17'0 0.4
2015-Aug-01 18:33N 37°25' W 123°17'0 0.3
2015-Aug-01 17:33N 37°25' W 123°18'0 0.3
2015-Aug-01 16:33N 37°24' W 123°18'0 0.3
2015-Aug-01 15:33N 37°25' W 123°18'0 0.3
2015-Aug-01 14:34N 37°25' W 123°19'1 0.5
2015-Aug-01 13:33N 37°25' W 123°19'1 0.6
2015-Aug-01 12:33N 37°26' W 123°20'0 0.3
2015-Aug-01 11:33N 37°26' W 123°20'0 0.4
2015-Aug-01 10:34N 37°26' W 123°20'0 0.3
2015-Aug-01 09:33N 37°26' W 123°20'0 0.1
2015-Aug-01 08:33N 37°26' W 123°20'0 0.3
2015-Aug-01 07:33N 37°26' W 123°20'0 0.2
2015-Aug-01 06:33N 37°26' W 123°20'0 0.2
2015-Aug-01 05:33N 37°26' W 123°20'0 0.5
2015-Aug-01 04:33N 37°26' W 123°20'0 0.3
2015-Aug-01 03:34N 37°26' W 123°21'0 0.4
2015-Aug-01 02:33N 37°27' W 123°21'0 0.3
2015-Aug-01 01:33N 37°27' W 123°21'1 0.5
2015-Aug-01 00:33N 37°28' W 123°21'1 0.6
2015-Jul-31 23:33N 37°28' W 123°21'0 0.4
2015-Jul-31 22:33N 37°29' W 123°21'0 0.3
2015-Jul-31 21:33N 37°29' W 123°21'0 0.2
2015-Jul-31 20:33N 37°29' W 123°21'0 0.1
2015-Jul-31 19:33N 37°29' W 123°21'0 0.3
2015-Jul-31 18:34N 37°29' W 123°21'10 9.7
2015-Jul-31 17:33N 37°38' W 123°24'1313.5
2015-Jul-31 16:33N 37°51' W 123°29'1212.4
2015-Jul-31 15:33N 38°04' W 123°27'9 8.6
2015-Jul-31 14:33N 38°06' W 123°16'8 8.0
2015-Jul-31 13:34N 38°09' W 123°26'1313.4
2015-Jul-31 12:33N 38°10' W 123°43'1413.6
2015-Jul-31 11:33N 38°10' W 124°00'1413.9
2015-Jul-31 10:33N 38°10' W 124°18'1413.9
2015-Jul-31 09:33N 38°10' W 124°36'1312.6
2015-Jul-31 08:33N 38°07' W 124°51'3 2.8
2015-Jul-31 07:33N 38°10' W 124°53'1414.1
2015-Jul-31 06:34N 38°10' W 125°11'1414.1
2015-Jul-31 05:33N 38°10' W 125°29'1413.8
2015-Jul-31 04:33N 38°10' W 125°47'1414.0
2015-Jul-31 03:34N 38°10' W 126°05'1414.0
2015-Jul-31 02:33N 38°10' W 126°22'1413.7
2015-Jul-31 01:33N 38°10' W 126°40'1513.6
2015-Jul-31 00:27N 38°10' W 126°59'1213.5
2015-Jul-30 23:34N 38°10' W 127°14'5 4.9
2015-Jul-30 22:33N 38°10' W 127°20'1110.8
2015-Jul-30 21:33N 38°10' W 127°34'1413.4
2015-Jul-30 20:30N 38°10' W 127°52'1213.0
2015-Jul-30 19:33N 38°14' W 128°07'1413.6
2015-Jul-30 18:33N 38°21' W 128°21'1413.6
2015-Jul-30 17:33N 38°29' W 128°36'1413.5
2015-Jul-30 16:30N 38°37' W 128°51'3913.2
2015-Jul-30 13:33N 38°59' W 129°32'1312.7
2015-Jul-30 12:33N 39°06' W 129°46'1513.0
2015-Jul-30 11:24N 39°14' W 130°02'1113.3
2015-Jul-30 10:33N 39°20' W 130°14'1313.2
2015-Jul-30 09:33N 39°28' W 130°28'1312.9
2015-Jul-30 08:33N 39°34' W 130°42'1312.8
2015-Jul-30 07:33N 39°42' W 130°56'1312.6
2015-Jul-30 06:33N 39°48' W 131°10'1212.6
2015-Jul-30 05:33N 39°55' W 131°24'1312.7
2015-Jul-30 04:33N 40°02' W 131°38'1313.0
2015-Jul-30 03:33N 40°09' W 131°52'1313.1
2015-Jul-30 02:32N 40°16' W 132°07'5413.3
2015-Jul-29 22:29N 40°44' W 133°07'  

Dump ship's entire track history